• Join FlightAware (Why Join?)
  • Login
  • US Flag 
07:27PM EST


 

Airport Tracker/Info


-or-


 

Live Flight TrackerFlight Track Log ✈ UAL933 ✈ 27-Apr-2012 ✈ EDDF / FRA - KIAD

Flight Track Log - Related Links

Times and Time Zones

All times are in EDT time to prevent confusion due to time zone crossing. See the UAL933 flight status page for this flight to view local times or setup timezone preferences in your user account.

Time Position Orientation Groundspeed Altitude Reporting Facility
EDT Latitude Longitude Course Direction KTS MPH feet Rate Location/Type
11:23AM 50.0390 8.5016 281° West  Level FlightAware Approximate
11:24AM 50.0905 8.3365 281° West  Level FlightAware Approximate
11:25AM 50.1407 8.1706 280° West  Level FlightAware Approximate
11:26AM 50.1927 8.0053 280° West  Level FlightAware Approximate
11:27AM 50.2374 7.8361 279° West  Level FlightAware Approximate
11:28AM 50.2856 7.6676 279° West  Level FlightAware Approximate
11:29AM 50.3346 7.4995 278° West  Level FlightAware Approximate
11:30AM 50.3833 7.3310 277° West  Level FlightAware Approximate
11:31AM 50.4343 7.1642 277° West  Level FlightAware Approximate
11:32AM 50.4825 6.9949 276° West  Level FlightAware Approximate
11:33AM 50.5368 6.8324 275° West  Level FlightAware Approximate
11:34AM 50.5842 6.6623 274° West  Level FlightAware Approximate
11:35AM 50.6258 6.4883 273° West  Level FlightAware Approximate
11:36AM 50.6737 6.3247 273° West  Level FlightAware Approximate
11:37AM 50.7150 6.1507 272° West  Level FlightAware Approximate
11:38AM 50.7615 5.9793 271° West  Level FlightAware Approximate
11:39AM 50.8080 5.8077 270° West  Level FlightAware Approximate
11:40AM 50.8540 5.6356 268° West  Level FlightAware Approximate
11:41AM 50.8999 5.4633 267° West  Level FlightAware Approximate
11:42AM 50.9455 5.2905 266° West  Level FlightAware Approximate
11:43AM 50.9908 5.1175 264° West  Level FlightAware Approximate
11:44AM 51.0388 4.9472 263° West  Level FlightAware Approximate
11:45AM 51.0787 4.7705 261° West  Level FlightAware Approximate
11:46AM 51.1234 4.5966 259° West  Level FlightAware Approximate
11:47AM 51.1679 4.4224 257° West  Level FlightAware Approximate
11:48AM 51.2122 4.2478 255° West  Level FlightAware Approximate
11:49AM 51.2561 4.0728 253° West  Level FlightAware Approximate
11:50AM 51.2999 3.8976 250° West  Level FlightAware Approximate
11:51AM 51.3433 3.7220 247° West  Level FlightAware Approximate
11:52AM 51.3865 3.5460 243° Southwest  Level FlightAware Approximate
11:53AM 51.4294 3.3698 240° Southwest  Level FlightAware Approximate
11:54AM 51.4721 3.1932 235° Southwest  Level FlightAware Approximate
11:55AM 51.5145 3.0163 231° Southwest  Level FlightAware Approximate
11:56AM 51.5566 2.8390 226° Southwest  Level FlightAware Approximate
11:57AM 51.5985 2.6614 220° Southwest  Level FlightAware Approximate
11:58AM 51.6401 2.4835 215° Southwest  Level FlightAware Approximate
11:59AM 51.6814 2.3053 209° Southwest  Level FlightAware Approximate
12:00PM 51.7253 2.1285 202° Southwest  Level FlightAware Approximate
12:01PM 51.7660 1.9496 196° South  Level FlightAware Approximate
12:02PM 51.8065 1.7703 190° South  Level FlightAware Approximate
12:03PM 51.8466 1.5907 184° South  Level FlightAware Approximate
12:04PM 51.8865 1.4108 178° South  Level FlightAware Approximate
12:05PM 51.9246 1.2297 173° South  Level FlightAware Approximate
12:06PM 51.9640 1.0492 168° South  Level FlightAware Approximate
12:07PM 52.0031 0.8684 163° South  Level FlightAware Approximate
12:12PM 50.7102 1.4744 300° West 455 524 26,600  Level FlightAware ADS-B
12:20PM 51.0712 0.4478 315° West 349 402 15,000 -1,500 Descending FlightAware ADS-B
12:20PM 51.1060 0.3930 315° West 347 399 14,700 -1,020 Descending FlightAware ADS-B
12:21PM 51.1415 0.3371 315° West 341 392 14,000 -1,500 Descending FlightAware ADS-B
12:21PM 51.1753 0.2831 315° West 336 387 13,200 -1,020 Descending FlightAware ADS-B
12:22PM 51.2086 0.2302 315° West 337 388 13,000 -240 Descending FlightAware ADS-B
12:22PM 51.2405 0.1794 315° West 310 357 13,000 -600 Level FlightAware ADS-B
12:23PM 51.2699 0.1326 315° West 287 330 12,400 -1,320 Descending FlightAware ADS-B
12:23PM 51.2967 0.0897 315° West 262 302 11,700 -1,740 Descending FlightAware ADS-B
12:24PM 51.3215 0.0499 315° West 244 281 10,700 -1,860 Descending FlightAware ADS-B
12:24PM 51.3419 0.0168 311° West 243 280 10,000 -1,440 Descending FlightAware ADS-B
12:24PM 51.3449 0.0112 306° West 243 280 10,000  Level FlightAware ADS-B
12:24PM 51.3470 0.0065 298° West 241 277 10,000  Level FlightAware ADS-B
12:24PM 51.3491 0.0002 289° West 237 273 10,000 -600 Level FlightAware ADS-B
12:24PM 51.3511 -0.0089 281° West 232 267 9,900 -720 Descending FlightAware ADS-B
12:24PM 51.3518 -0.0147 273° West 229 264 9,900 -900 Level FlightAware ADS-B
12:24PM 51.3520 -0.0208 266° West 226 260 9,800 -1,200 Descending FlightAware ADS-B
12:25PM 51.3516 -0.0309 261° West 223 257 9,700 -1,440 Descending FlightAware ADS-B
12:25PM 51.3500 -0.0479 260° West 217 250 9,400 -1,740 Descending FlightAware ADS-B
12:25PM 51.3482 -0.0635 260° West 211 243 9,100 -1,500 Descending FlightAware ADS-B
12:25PM 51.3451 -0.0916 261° West 194 223 8,700 -1,380 Descending FlightAware ADS-B
12:25PM 51.3428 -0.1136 260° West 190 219 8,300 -1,380 Descending FlightAware ADS-B
12:26PM 51.3420 -0.1211 263° West 190 219 8,200 -720 Descending FlightAware ADS-B
12:26PM 51.3417 -0.1253 268° West 190 219 8,200 -1,020 Level FlightAware ADS-B
12:26PM 51.3416 -0.1304 276° West 190 219 8,100 -900 Descending FlightAware ADS-B
12:26PM 51.3419 -0.1353 281° West 192 221 8,100 -900 Level FlightAware ADS-B
12:26PM 51.3424 -0.1393 290° West 194 223 8,000 -900 Descending FlightAware ADS-B
12:26PM 51.3433 -0.1432 300° West 196 226 8,000  Level FlightAware ADS-B
12:26PM 51.3457 -0.1498 315° West 200 230 8,000  Level FlightAware ADS-B
12:26PM 51.3504 -0.1573 330° Northwest 202 232 8,000  Level FlightAware ADS-B
12:26PM 51.3543 -0.1609 341° North 203 234 8,000 -600 Level FlightAware ADS-B
12:26PM 51.3593 -0.1636 353° North 205 236 7,900 -1,200 Descending FlightAware ADS-B
12:26PM 51.3636 -0.1645 North 207 238 7,800 -1,500 Descending FlightAware ADS-B
12:26PM 51.3674 -0.1642 11° North 210 242 7,700 -1,740 Descending FlightAware ADS-B
12:26PM 51.3702 -0.1633 21° North 212 244 7,600 -1,500 Descending FlightAware ADS-B
12:26PM 51.3749 -0.1604 31° Northeast 214 246 7,500 -1,380 Descending FlightAware ADS-B
12:27PM 51.3783 -0.1571 41° Northeast 216 249 7,400 -1,500 Descending FlightAware ADS-B
12:27PM 51.3818 -0.1522 53° Northeast 216 249 7,300 -1,200 Descending FlightAware ADS-B
12:27PM 51.3851 -0.1451 65° Northeast 217 250 7,200 -1,020 Descending FlightAware ADS-B
12:27PM 51.3872 -0.1379 75° East 217 250 7,100 -1,380 Descending FlightAware ADS-B
12:27PM 51.3882 -0.1321 81° East 216 249 7,000 -1,500 Descending FlightAware ADS-B
12:27PM 51.3896 -0.1176 84° East 217 250 6,800 -1,020 Descending FlightAware ADS-B
12:27PM 51.3913 -0.0931 84° East 218 251 6,600 -840 Descending FlightAware ADS-B
12:28PM 51.3928 -0.0689 84° East 217 250 6,400 -720 Descending FlightAware ADS-B
12:28PM 51.3948 -0.0393 81° East 215 247 6,200 -720 Descending FlightAware ADS-B
12:28PM 51.3958 -0.0290 74° East 215 247 6,100 -1,020 Descending FlightAware ADS-B
12:28PM 51.3973 -0.0208 55° Northeast 216 249 6,000 -720 Descending FlightAware ADS-B
12:28PM 51.4040 -0.0056 35° Northeast 211 243 5,900 -720 Descending FlightAware ADS-B
12:28PM 51.4082 -0.0009 27° Northeast 207 238 5,800 -1,500 Descending FlightAware ADS-B
12:28PM 51.4108 0.0012 19° North 206 237 5,700 -1,020 Descending FlightAware ADS-B
12:28PM 51.4135 0.0027 North 204 235 5,700 -1,380 Level FlightAware ADS-B
12:29PM 51.4185 0.0040 358° North 200 230 5,500 -2,040 Descending FlightAware ADS-B
12:29PM 51.4217 0.0039 348° North 196 226 5,400 -1,500 Descending FlightAware ADS-B
12:29PM 51.4259 0.0024 335° Northwest 193 222 5,300 -1,200 Descending FlightAware ADS-B
12:29PM 51.4302 -0.0008 323° Northwest 190 219 5,200 -1,200 Descending FlightAware ADS-B
12:29PM 51.4332 -0.0044 313° West 186 214 5,100 -1,380 Descending FlightAware ADS-B
12:29PM 51.4356 -0.0086 300° West 185 213 5,000 -1,800 Descending FlightAware ADS-B
12:29PM 51.4382 -0.0157 293° West 184 212 4,800 -1,740 Descending FlightAware ADS-B
12:29PM 51.4410 -0.0262 290° West 183 211 4,600 -1,020 Descending FlightAware ADS-B
12:29PM 51.4457 -0.0465 291° West 184 212 4,400 -720 Descending FlightAware ADS-B
12:30PM 51.4539 -0.0809 291° West 186 214 4,100 -540 Descending FlightAware ADS-B
12:30PM 51.4606 -0.1087 287° West 187 215 4,000 -780 Descending FlightAware ADS-B
12:30PM 51.4650 -0.1324 276° West 189 217 3,600 -1,200 Descending FlightAware ADS-B
12:31PM 51.4653 -0.1373 271° West 186 214 3,600 -600 Level FlightAware ADS-B
12:31PM 51.4654 -0.1450 270° West 183 211 3,500 -1,080 Descending FlightAware ADS-B
12:31PM 51.4653 -0.1678 270° West 181 208 3,200 -660 Descending FlightAware ADS-B
12:31PM 51.4654 -0.1964 270° West 180 207 3,100 -780 Descending FlightAware ADS-B
12:32PM 51.4654 -0.2199 270° West 181 208 2,700 -1,140 Descending FlightAware ADS-B
12:32PM 51.4654 -0.2460 296° West 178 205 2,400 -960 Descending FlightAware ADS-B
12:40PM 51.8662 -1.5964 295° West  Level FlightAware Approximate
12:41PM 51.9160 -1.7698 295° West  Level FlightAware Approximate
12:42PM 51.9656 -1.9435 295° West  Level FlightAware Approximate
12:43PM 52.0149 -2.1177 295° West  Level FlightAware Approximate
12:44PM 52.0640 -2.2922 294° West  Level FlightAware Approximate
12:45PM 52.1128 -2.4671 294° West  Level FlightAware Approximate
12:46PM 52.1613 -2.6424 294° West  Level FlightAware Approximate
12:47PM 52.2096 -2.8180 291° West  Level FlightAware Approximate
12:48PM 52.2510 -2.9985 290° West  Level FlightAware Approximate
12:49PM 52.2920 -3.1794 290° West  Level FlightAware Approximate
12:50PM 52.3329 -3.3605 290° West  Level FlightAware Approximate
12:51PM 52.3734 -3.5420 290° West  Level FlightAware Approximate
12:52PM 52.4137 -3.7238 290° West  Level FlightAware Approximate
12:53PM 52.4537 -3.9060 290° West  Level FlightAware Approximate
12:54PM 52.4934 -4.0885 290° West  Level FlightAware Approximate
12:55PM 52.5328 -4.2713 289° West  Level FlightAware Approximate
12:56PM 52.5719 -4.4544 289° West  Level FlightAware Approximate
12:57PM 52.6108 -4.6379 289° West  Level FlightAware Approximate
12:58PM 52.6493 -4.8217 289° West  Level FlightAware Approximate
12:59PM 52.6876 -5.0058 289° West  Level FlightAware Approximate
01:00PM 52.7256 -5.1902 289° West  Level FlightAware Approximate
01:01PM 52.7634 -5.3750 289° West  Level FlightAware Approximate
01:02PM 52.8008 -5.5601 288° West  Level FlightAware Approximate
01:03PM 52.8379 -5.7455 288° West  Level FlightAware Approximate
01:04PM 52.8748 -5.9312 288° West  Level FlightAware Approximate
01:05PM 52.9113 -6.1172 288° West  Level FlightAware Approximate
01:06PM 52.9476 -6.3035 288° West  Level FlightAware Approximate
01:07PM 52.9836 -6.4902 288° West  Level FlightAware Approximate
01:08PM 53.0193 -6.6771 288° West  Level FlightAware Approximate
01:09PM 53.0546 -6.8644 287° West  Level FlightAware Approximate
01:10PM 53.0897 -7.0520 287° West  Level FlightAware Approximate
01:11PM 53.1245 -7.2399 287° West  Level FlightAware Approximate
01:12PM 53.1590 -7.4280 287° West  Level FlightAware Approximate
01:13PM 53.1932 -7.6165 287° West  Level FlightAware Approximate
01:14PM 53.2271 -7.8053 287° West  Level FlightAware Approximate
01:15PM 53.2608 -7.9944 286° West  Level FlightAware Approximate
01:16PM 53.2941 -8.1838 286° West  Level FlightAware Approximate
01:17PM 53.3271 -8.3734 286° West  Level FlightAware Approximate
01:18PM 53.3593 -8.5636 283° West  Level FlightAware Approximate
01:19PM 53.3852 -8.7566 283° West  Level FlightAware Approximate
01:20PM 53.4108 -8.9499 282° West  Level FlightAware Approximate
01:21PM 53.4360 -9.1434 282° West  Level FlightAware Approximate
01:22PM 53.4609 -9.3371 282° West  Level FlightAware Approximate
01:23PM 53.4855 -9.5310 282° West  Level FlightAware Approximate
01:24PM 53.5098 -9.7252 282° West  Level FlightAware Approximate
01:25PM 53.5338 -9.9196 282° West  Level FlightAware Approximate
01:26PM 53.5575 -10.1142 281° West  Level FlightAware Approximate
01:27PM 53.5808 -10.3090 281° West  Level FlightAware Approximate
01:28PM 53.6039 -10.5041 281° West  Level FlightAware Approximate
01:29PM 53.6266 -10.6993 281° West  Level FlightAware Approximate
01:30PM 53.6490 -10.8948 281° West  Level FlightAware Approximate
01:31PM 53.6711 -11.0905 281° West  Level FlightAware Approximate
01:32PM 53.6928 -11.2863 281° West  Level FlightAware Approximate
01:33PM 53.7143 -11.4824 280° West  Level FlightAware Approximate
01:34PM 53.7354 -11.6787 280° West  Level FlightAware Approximate
01:35PM 53.7562 -11.8751 280° West  Level FlightAware Approximate
01:36PM 53.7767 -12.0718 280° West  Level FlightAware Approximate
01:37PM 53.7968 -12.2687 280° West  Level FlightAware Approximate
01:38PM 53.8167 -12.4657 280° West  Level FlightAware Approximate
01:39PM 53.8362 -12.6629 279° West  Level FlightAware Approximate
01:40PM 53.8554 -12.8603 279° West  Level FlightAware Approximate
01:41PM 53.8742 -13.0579 279° West  Level FlightAware Approximate
01:42PM 53.8928 -13.2557 279° West  Level FlightAware Approximate
01:43PM 53.9110 -13.4536 279° West  Level FlightAware Approximate
01:44PM 53.9289 -13.6517 279° West  Level FlightAware Approximate
01:45PM 53.9464 -13.8500 278° West  Level FlightAware Approximate
01:46PM 53.9625 -14.0487 278° West  Level FlightAware Approximate
01:47PM 53.9782 -14.2476 278° West  Level FlightAware Approximate
01:48PM 53.9936 -14.4466 277° West  Level FlightAware Approximate
01:49PM 54.0087 -14.6458 277° West  Level FlightAware Approximate
01:50PM 54.0235 -14.8451 277° West  Level FlightAware Approximate
01:51PM 54.0379 -15.0445 277° West  Level FlightAware Approximate
01:52PM 54.0520 -15.2441 277° West  Level FlightAware Approximate
01:53PM 54.0658 -15.4439 277° West  Level FlightAware Approximate
01:54PM 54.0792 -15.6437 276° West  Level FlightAware Approximate
01:55PM 54.0923 -15.8437 276° West  Level FlightAware Approximate
01:56PM 54.1051 -16.0438 276° West  Level FlightAware Approximate
01:57PM 54.1175 -16.2440 276° West  Level FlightAware Approximate
01:58PM 54.1296 -16.4444 276° West  Level FlightAware Approximate
01:59PM 54.1414 -16.6448 276° West  Level FlightAware Approximate
02:00PM 54.1529 -16.8454 275° West  Level FlightAware Approximate
02:01PM 54.1640 -17.0461 275° West  Level FlightAware Approximate
02:02PM 54.1747 -17.2469 275° West  Level FlightAware Approximate
02:03PM 54.1852 -17.4478 275° West  Level FlightAware Approximate
02:04PM 54.1953 -17.6488 275° West  Level FlightAware Approximate
02:05PM 54.2050 -17.8498 275° West  Level FlightAware Approximate
02:06PM 54.2145 -18.0510 275° West  Level FlightAware Approximate
02:07PM 54.2236 -18.2523 274° West  Level FlightAware Approximate
02:08PM 54.2323 -18.4537 274° West  Level FlightAware Approximate
02:09PM 54.2408 -18.6551 274° West  Level FlightAware Approximate
02:10PM 54.2489 -18.8566 274° West  Level FlightAware Approximate
02:11PM 54.2566 -19.0582 274° West  Level FlightAware Approximate
02:12PM 54.2640 -19.2599 274° West  Level FlightAware Approximate
02:13PM 54.2711 -19.4617 273° West  Level FlightAware Approximate
02:14PM 54.2779 -19.6635 273° West  Level FlightAware Approximate
02:15PM 54.2843 -19.8654 273° West  Level FlightAware Approximate
02:16PM 54.2903 -20.0673 273° West  Level FlightAware Approximate
02:17PM 54.2961 -20.2693 273° West  Level FlightAware Approximate
02:18PM 54.3015 -20.4713 273° West  Level FlightAware Approximate
02:19PM 54.3065 -20.6734 272° West  Level FlightAware Approximate
02:20PM 54.3112 -20.8756 272° West  Level FlightAware Approximate
02:21PM 54.3156 -21.0778 272° West  Level FlightAware Approximate
02:22PM 54.3197 -21.2800 272° West  Level FlightAware Approximate
02:23PM 54.3234 -21.4823 272° West  Level FlightAware Approximate
02:24PM 54.3268 -21.6846 272° West  Level FlightAware Approximate
02:25PM 54.3298 -21.8870 271° West  Level FlightAware Approximate
02:26PM 54.3325 -22.0893 271° West  Level FlightAware Approximate
02:27PM 54.3348 -22.2917 271° West  Level FlightAware Approximate
02:28PM 54.3368 -22.4942 271° West  Level FlightAware Approximate
02:29PM 54.3385 -22.6966 271° West  Level FlightAware Approximate
02:30PM 54.3398 -22.8990 271° West  Level FlightAware Approximate
02:31PM 54.3408 -23.1015 270° West  Level FlightAware Approximate
02:32PM 54.3415 -23.3040 270° West  Level FlightAware Approximate
02:33PM 54.3418 -23.5064 270° West  Level FlightAware Approximate
02:34PM 54.3418 -23.7089 270° West  Level FlightAware Approximate
02:35PM 54.3414 -23.9114 270° West  Level FlightAware Approximate
02:36PM 54.3407 -24.1139 270° West  Level FlightAware Approximate
02:37PM 54.3397 -24.3163 269° West  Level FlightAware Approximate
02:38PM 54.3383 -24.5188 269° West  Level FlightAware Approximate
02:39PM 54.3366 -24.7212 269° West  Level FlightAware Approximate
02:40PM 54.3346 -24.9236 269° West  Level FlightAware Approximate
02:41PM 54.3322 -25.1260 269° West  Level FlightAware Approximate
02:42PM 54.3294 -25.3284 269° West  Level FlightAware Approximate
02:43PM 54.3264 -25.5307 268° West  Level FlightAware Approximate
02:44PM 54.3230 -25.7330 268° West  Level FlightAware Approximate
02:45PM 54.3192 -25.9353 268° West  Level FlightAware Approximate
02:46PM 54.3151 -26.1375 268° West  Level FlightAware Approximate
02:47PM 54.3107 -26.3397 268° West  Level FlightAware Approximate
02:48PM 54.3060 -26.5419 268° West  Level FlightAware Approximate
02:49PM 54.3008 -26.7440 267° West  Level FlightAware Approximate
02:50PM 54.2954 -26.9460 267° West  Level FlightAware Approximate
02:51PM 54.2896 -27.1480 267° West  Level FlightAware Approximate
02:52PM 54.2835 -27.3499 267° West  Level FlightAware Approximate
02:53PM 54.2771 -27.5518 267° West  Level FlightAware Approximate
02:54PM 54.2703 -27.7536 267° West  Level FlightAware Approximate
02:55PM 54.2632 -27.9554 266° West  Level FlightAware Approximate
02:56PM 54.2557 -28.1570 266° West  Level FlightAware Approximate
02:57PM 54.2479 -28.3586 266° West  Level FlightAware Approximate
02:58PM 54.2398 -28.5601 266° West  Level FlightAware Approximate
02:59PM 54.2313 -28.7616 266° West  Level FlightAware Approximate
03:00PM 54.2225 -28.9629 266° West  Level FlightAware Approximate
03:01PM 54.2134 -29.1642 265° West  Level FlightAware Approximate
03:02PM 54.2039 -29.3653 265° West  Level FlightAware Approximate
03:03PM 54.1941 -29.5664 265° West  Level FlightAware Approximate
03:04PM 54.1840 -29.7674 265° West  Level FlightAware Approximate
03:05PM 54.1735 -29.9683 265° West  Level FlightAware Approximate
03:06PM 54.1624 -30.1690 265° West  Level FlightAware Approximate
03:07PM 54.1509 -30.3696 264° West  Level FlightAware Approximate
03:08PM 54.1391 -30.5701 264° West  Level FlightAware Approximate
03:09PM 54.1270 -30.7705 264° West  Level FlightAware Approximate
03:10PM 54.1145 -30.9708 264° West  Level FlightAware Approximate
03:11PM 54.1017 -31.1709 264° West  Level FlightAware Approximate
03:12PM 54.0886 -31.3710 264° West  Level FlightAware Approximate
03:13PM 54.0752 -31.5709 263° West  Level FlightAware Approximate
03:14PM 54.0614 -31.7706 263° West  Level FlightAware Approximate
03:15PM 54.0473 -31.9703 263° West  Level FlightAware Approximate
03:16PM 54.0328 -32.1698 263° West  Level FlightAware Approximate
03:17PM 54.0181 -32.3691 263° West  Level FlightAware Approximate
03:18PM 54.0030 -32.5683 263° West  Level FlightAware Approximate
03:19PM 53.9875 -32.7674 262° West  Level FlightAware Approximate
03:20PM 53.9718 -32.9663 262° West  Level FlightAware Approximate
03:21PM 53.9557 -33.1650 262° West  Level FlightAware Approximate
03:22PM 53.9393 -33.3637 262° West  Level FlightAware Approximate
03:23PM 53.9225 -33.5621 262° West  Level FlightAware Approximate
03:24PM 53.9055 -33.7604 262° West  Level FlightAware Approximate
03:25PM 53.8881 -33.9585 261° West  Level FlightAware Approximate
03:26PM 53.8704 -34.1565 261° West  Level FlightAware Approximate
03:27PM 53.8523 -34.3543 261° West  Level FlightAware Approximate
03:28PM 53.8339 -34.5519 261° West  Level FlightAware Approximate
03:29PM 53.8152 -34.7493 261° West  Level FlightAware Approximate
03:30PM 53.7962 -34.9466 261° West  Level FlightAware Approximate
03:31PM 53.7769 -35.1437 260° West  Level FlightAware Approximate
03:32PM 53.7572 -35.3406 260° West  Level FlightAware Approximate
03:33PM 53.7372 -35.5373 260° West  Level FlightAware Approximate
03:34PM 53.7169 -35.7338 260° West  Level FlightAware Approximate
03:35PM 53.6963 -35.9302 260° West  Level FlightAware Approximate
03:36PM 53.6753 -36.1263 260° West  Level FlightAware Approximate
03:37PM 53.6540 -36.3223 260° West  Level FlightAware Approximate
03:38PM 53.6325 -36.5180 259° West  Level FlightAware Approximate
03:39PM 53.6105 -36.7136 259° West  Level FlightAware Approximate
03:40PM 53.5883 -36.9089 259° West  Level FlightAware Approximate
03:41PM 53.5658 -37.1040 259° West  Level FlightAware Approximate
03:42PM 53.5429 -37.2989 259° West  Level FlightAware Approximate
03:43PM 53.5197 -37.4936 259° West  Level FlightAware Approximate
03:44PM 53.4962 -37.6881 258° West  Level FlightAware Approximate
03:45PM 53.4724 -37.8824 258° West  Level FlightAware Approximate
03:46PM 53.4483 -38.0765 258° West  Level FlightAware Approximate
03:47PM 53.4238 -38.2703 258° West  Level FlightAware Approximate
03:48PM 53.3991 -38.4639 258° West  Level FlightAware Approximate
03:49PM 53.3740 -38.6573 258° West  Level FlightAware Approximate
03:50PM 53.3486 -38.8505 258° West  Level FlightAware Approximate
03:51PM 53.3229 -39.0434 257° West  Level FlightAware Approximate
03:52PM 53.2969 -39.2361 257° West  Level FlightAware Approximate
03:53PM 53.2706 -39.4286 257° West  Level FlightAware Approximate
03:54PM 53.2440 -39.6208 257° West  Level FlightAware Approximate
03:55PM 53.2171 -39.8128 257° West  Level FlightAware Approximate
03:56PM 53.1898 -40.0045 257° West  Level FlightAware Approximate
03:57PM 53.1623 -40.1960 256° West  Level FlightAware Approximate
03:58PM 53.1344 -40.3872 256° West  Level FlightAware Approximate
03:59PM 53.1063 -40.5783 256° West  Level FlightAware Approximate
04:00PM 53.0778 -40.7690 256° West  Level FlightAware Approximate
04:01PM 53.0490 -40.9595 256° West  Level FlightAware Approximate
04:02PM 53.0200 -41.1497 256° West  Level FlightAware Approximate
04:03PM 52.9906 -41.3397 256° West  Level FlightAware Approximate
04:04PM 52.9609 -41.5294 255° West  Level FlightAware Approximate
04:05PM 52.9309 -41.7189 255° West  Level FlightAware Approximate
04:06PM 52.9007 -41.9081 255° West  Level FlightAware Approximate
04:07PM 52.8701 -42.0970 255° West  Level FlightAware Approximate
04:08PM 52.8392 -42.2857 255° West  Level FlightAware Approximate
04:09PM 52.8080 -42.4741 255° West  Level FlightAware Approximate
04:10PM 52.7765 -42.6622 254° West  Level FlightAware Approximate
04:11PM 52.7448 -42.8500 254° West  Level FlightAware Approximate
04:12PM 52.7127 -43.0376 254° West  Level FlightAware Approximate
04:13PM 52.6803 -43.2249 254° West  Level FlightAware Approximate
04:14PM 52.6477 -43.4119 254° West  Level FlightAware Approximate
04:15PM 52.6147 -43.5987 254° West  Level FlightAware Approximate
04:16PM 52.5815 -43.7851 254° West  Level FlightAware Approximate
04:17PM 52.5479 -43.9713 253° West  Level FlightAware Approximate
04:18PM 52.5141 -44.1572 253° West  Level FlightAware Approximate
04:19PM 52.4800 -44.3428 253° West  Level FlightAware Approximate
04:20PM 52.4455 -44.5281 253° West  Level FlightAware Approximate
04:21PM 52.4109 -44.7131 253° West  Level FlightAware Approximate
04:22PM 52.3759 -44.8978 253° West  Level FlightAware Approximate
04:23PM 52.3406 -45.0823 253° West  Level FlightAware Approximate
04:24PM 52.3050 -45.2664 252° West  Level FlightAware Approximate
04:25PM 52.2692 -45.4502 252° West  Level FlightAware Approximate
04:26PM 52.2330 -45.6338 252° West  Level FlightAware Approximate
04:27PM 52.1966 -45.8170 252° West  Level FlightAware Approximate
04:28PM 52.1599 -46.0000 252° West  Level FlightAware Approximate
04:29PM 52.1229 -46.1826 265° West  Level FlightAware Approximate
04:30PM 52.1125 -46.3676 251° West  Level FlightAware Approximate
04:31PM 52.0743 -46.5494 251° West  Level FlightAware Approximate
04:32PM 52.0358 -46.7309 251° West  Level FlightAware Approximate
04:33PM 51.9971 -46.9120 251° West  Level FlightAware Approximate
04:34PM 51.9581 -47.0929 251° West  Level FlightAware Approximate
04:35PM 51.9188 -47.2734 250° West  Level FlightAware Approximate
04:36PM 51.8792 -47.4536 250° West  Level FlightAware Approximate
04:37PM 51.8393 -47.6335 250° West  Level FlightAware Approximate
04:38PM 51.7992 -47.8131 250° West  Level FlightAware Approximate
04:39PM 51.7588 -47.9923 250° West  Level FlightAware Approximate
04:40PM 51.7181 -48.1712 250° West  Level FlightAware Approximate
04:41PM 51.6772 -48.3499 250° West  Level FlightAware Approximate
04:42PM 51.6360 -48.5281 249° West  Level FlightAware Approximate
04:43PM 51.5945 -48.7061 249° West  Level FlightAware Approximate
04:44PM 51.5527 -48.8837 249° West  Level FlightAware Approximate
04:45PM 51.5107 -49.0611 249° West  Level FlightAware Approximate
04:46PM 51.4684 -49.2380 249° West  Level FlightAware Approximate
04:47PM 51.4259 -49.4147 249° West  Level FlightAware Approximate
04:48PM 51.3831 -49.5910 249° West  Level FlightAware Approximate
04:49PM 51.3400 -49.7670 249° West  Level FlightAware Approximate
04:50PM 51.2966 -49.9426 248° West  Level FlightAware Approximate
04:51PM 51.2530 -50.1180 248° West  Level FlightAware Approximate
04:52PM 51.2092 -50.2930 252° West  Level FlightAware Approximate
04:53PM 51.1728 -50.4712 248° West  Level FlightAware Approximate
04:54PM 51.1282 -50.6455 248° West  Level FlightAware Approximate
04:55PM 51.0834 -50.8194 248° West  Level FlightAware Approximate
04:56PM 51.0383 -50.9929 247° West  Level FlightAware Approximate
04:57PM 50.9930 -51.1662 247° West  Level FlightAware Approximate
04:58PM 50.9474 -51.3391 247° West  Level FlightAware Approximate
04:59PM 50.9016 -51.5116 247° West  Level FlightAware Approximate
05:00PM 50.8555 -51.6838 247° West  Level FlightAware Approximate
05:01PM 50.8091 -51.8557 247° West  Level FlightAware Approximate
05:02PM 50.7625 -52.0272 247° West  Level FlightAware Approximate
05:03PM 50.7157 -52.1984 242° Southwest  Level FlightAware Approximate
05:04PM 50.6609 -52.3594 246° West  Level FlightAware Approximate
05:05PM 50.6136 -52.5300 246° West  Level FlightAware Approximate
05:06PM 50.5661 -52.7002 246° West  Level FlightAware Approximate
05:07PM 50.5183 -52.8700 246° West  Level FlightAware Approximate
05:08PM 50.4703 -53.0395 246° West  Level FlightAware Approximate
05:09PM 50.4221 -53.2087 246° West  Level FlightAware Approximate
05:10PM 50.3736 -53.3775 246° West  Level FlightAware Approximate
05:11PM 50.3249 -53.5460 246° West  Level FlightAware Approximate
05:12PM 50.2759 -53.7141 245° Southwest  Level FlightAware Approximate
05:13PM 50.2267 -53.8819 245° Southwest  Level FlightAware Approximate
05:14PM 50.1772 -54.0493 245° Southwest  Level FlightAware Approximate
05:15PM 50.1275 -54.2164 245° Southwest  Level FlightAware Approximate
05:16PM 50.0776 -54.3831 245° Southwest  Level FlightAware Approximate
05:17PM 50.0274 -54.5495 245° Southwest  Level FlightAware Approximate
05:18PM 49.9770 -54.7155 245° Southwest  Level FlightAware Approximate
05:19PM 49.9263 -54.8812 245° Southwest  Level FlightAware Approximate
05:20PM 49.8754 -55.0466 244° Southwest  Level FlightAware Approximate
05:21PM 49.8243 -55.2116 244° Southwest  Level FlightAware Approximate
05:22PM 49.7730 -55.3762 244° Southwest  Level FlightAware Approximate
05:23PM 49.7214 -55.5405 244° Southwest  Level FlightAware Approximate
05:24PM 49.6696 -55.7045 244° Southwest  Level FlightAware Approximate
05:25PM 49.6175 -55.8681 244° Southwest  Level FlightAware Approximate
05:26PM 49.5652 -56.0313 244° Southwest  Level FlightAware Approximate
05:27PM 49.5127 -56.1942 244° Southwest  Level FlightAware Approximate
05:28PM 49.4600 -56.3568 243° Southwest  Level FlightAware Approximate
05:29PM 49.4070 -56.5190 243° Southwest  Level FlightAware Approximate
05:30PM 49.3538 -56.6808 243° Southwest  Level FlightAware Approximate
05:31PM 49.3004 -56.8423 243° Southwest  Level FlightAware Approximate
05:32PM 49.2468 -57.0035 243° Southwest  Level FlightAware Approximate
05:33PM 49.1929 -57.1642 243° Southwest  Level FlightAware Approximate
05:34PM 49.1388 -57.3247 243° Southwest  Level FlightAware Approximate
05:35PM 49.0845 -57.4848 243° Southwest  Level FlightAware Approximate
05:36PM 49.0300 -57.6445 242° Southwest  Level FlightAware Approximate
05:37PM 48.9752 -57.8039 245° Southwest  Level FlightAware Approximate
05:38PM 48.9262 -57.9666 242° Southwest  Level FlightAware Approximate
05:39PM 48.8710 -58.1253 242° Southwest  Level FlightAware Approximate
05:40PM 48.8157 -58.2837 242° Southwest  Level FlightAware Approximate
05:41PM 48.7601 -58.4418 242° Southwest  Level FlightAware Approximate
05:42PM 48.7043 -58.5995 242° Southwest  Level FlightAware Approximate
05:43PM 48.6483 -58.7568 242° Southwest  Level FlightAware Approximate
05:44PM 48.5921 -58.9138 241° Southwest  Level FlightAware Approximate
05:45PM 48.5356 -59.0705 241° Southwest  Level FlightAware Approximate
05:46PM 48.4790 -59.2268 241° Southwest  Level FlightAware Approximate
05:47PM 48.4221 -59.3827 241° Southwest  Level FlightAware Approximate
05:48PM 48.3651 -59.5383 241° Southwest  Level FlightAware Approximate
05:49PM 48.3078 -59.6936 241° Southwest  Level FlightAware Approximate
05:50PM 48.2503 -59.8485 241° Southwest  Level FlightAware Approximate
05:51PM 48.1926 -60.0030 241° Southwest  Level FlightAware Approximate
05:52PM 48.1347 -60.1572 241° Southwest  Level FlightAware Approximate
05:53PM 48.0766 -60.3111 240° Southwest  Level FlightAware Approximate
05:54PM 48.0183 -60.4646 240° Southwest  Level FlightAware Approximate
05:55PM 47.9598 -60.6178 240° Southwest  Level FlightAware Approximate
05:56PM 47.9011 -60.7706 240° Southwest  Level FlightAware Approximate
05:57PM 47.8421 -60.9230 240° Southwest  Level FlightAware Approximate
05:58PM 47.7830 -61.0752 240° Southwest  Level FlightAware Approximate
05:59PM 47.7237 -61.2269 240° Southwest  Level FlightAware Approximate
06:00PM 47.6642 -61.3784 240° Southwest  Level FlightAware Approximate
06:01PM 47.6045 -61.5294 240° Southwest  Level FlightAware Approximate
06:02PM 47.5445 -61.6802 239° Southwest  Level FlightAware Approximate
06:03PM 47.4844 -61.8306 239° Southwest  Level FlightAware Approximate
06:04PM 47.4241 -61.9806 239° Southwest  Level FlightAware Approximate
06:05PM 47.3636 -62.1303 239° Southwest  Level FlightAware Approximate
06:06PM 47.3029 -62.2797 239° Southwest  Level FlightAware Approximate
06:07PM 47.2420 -62.4287 239° Southwest  Level FlightAware Approximate
06:08PM 47.1809 -62.5774 239° Southwest  Level FlightAware Approximate
06:09PM 47.1196 -62.7257 239° Southwest  Level FlightAware Approximate
06:10PM 47.0582 -62.8737 235° Southwest  Level FlightAware Approximate
06:11PM 46.9899 -63.0145 239° Southwest  Level FlightAware Approximate
06:12PM 46.9282 -63.1620 238° Southwest  Level FlightAware Approximate
06:13PM 46.8663 -63.3091 238° Southwest  Level FlightAware Approximate
06:14PM 46.8043 -63.4558 238° Southwest  Level FlightAware Approximate
06:15PM 46.7420 -63.6023 238° Southwest  Level FlightAware Approximate
06:16PM 46.6796 -63.7484 238° Southwest  Level FlightAware Approximate
06:17PM 46.6170 -63.8941 238° Southwest  Level FlightAware Approximate
06:18PM 46.5542 -64.0396 238° Southwest  Level FlightAware Approximate
06:19PM 46.4912 -64.1846 238° Southwest  Level FlightAware Approximate
06:20PM 46.4281 -64.3294 238° Southwest  Level FlightAware Approximate
06:21PM 46.3647 -64.4738 237° Southwest  Level FlightAware Approximate
06:22PM 46.3012 -64.6179 237° Southwest  Level FlightAware Approximate
06:23PM 46.2375 -64.7616 237° Southwest  Level FlightAware Approximate
06:24PM 46.1736 -64.9050 238° Southwest  Level FlightAware Approximate
06:25PM 46.1113 -65.0497 237° Southwest  Level FlightAware Approximate
06:26PM 46.0470 -65.1924 237° Southwest  Level FlightAware Approximate
06:27PM 45.9826 -65.3348 237° Southwest  Level FlightAware Approximate
06:28PM 45.9179 -65.4769 237° Southwest  Level FlightAware Approximate
06:29PM 45.8531 -65.6186 237° Southwest  Level FlightAware Approximate
06:30PM 45.7881 -65.7599 237° Southwest  Level FlightAware Approximate
06:31PM 45.7230 -65.9010 239° Southwest  Level FlightAware Approximate
06:32PM 45.6620 -66.0455 236° Southwest  Level FlightAware Approximate
06:33PM 45.5963 -66.1858 236° Southwest  Level FlightAware Approximate
06:34PM 45.5305 -66.3258 236° Southwest  Level FlightAware Approximate
06:35PM 45.4646 -66.4655 236° Southwest  Level FlightAware Approximate
06:36PM 45.3985 -66.6048 236° Southwest  Level FlightAware Approximate
06:37PM 45.3322 -66.7438 236° Southwest  Level FlightAware Approximate
06:38PM 45.2657 -66.8824 236° Southwest  Level FlightAware Approximate
06:39PM 45.1991 -67.0208 236° Southwest  Level FlightAware Approximate
06:40PM 45.1323 -67.1588 234° Southwest  Level FlightAware Approximate
06:41PM 45.0623 -67.2932 235° Southwest  Level FlightAware Approximate
06:42PM 44.9938 -67.4292 234° Southwest  Level FlightAware Approximate
06:43PM 44.9251 -67.5649 234° Southwest  Level FlightAware Approximate
06:44PM 44.8563 -67.7002 234° Southwest  Level FlightAware Approximate
06:45PM 44.7873 -67.8352 234° Southwest  Level FlightAware Approximate
06:46PM 44.7181 -67.9699 234° Southwest  Level FlightAware Approximate
06:47PM 44.6488 -68.1043 234° Southwest  Level FlightAware Approximate
06:48PM 44.5793 -68.2383 234° Southwest  Level FlightAware Approximate
06:49PM 44.5097 -68.3720 234° Southwest  Level FlightAware Approximate
06:50PM 44.4399 -68.5054 234° Southwest  Level FlightAware Approximate
06:51PM 44.3700 -68.6385 234° Southwest  Level FlightAware Approximate
06:52PM 44.2999 -68.7713 234° Southwest  Level FlightAware Approximate
06:53PM 44.2296 -68.9038 233° Southwest  Level FlightAware Approximate
06:54PM 44.1592 -69.0359 233° Southwest  Level FlightAware Approximate
06:55PM 44.0887 -69.1677 233° Southwest  Level FlightAware Approximate
06:56PM 44.0180 -69.2992 233° Southwest  Level FlightAware Approximate
06:57PM 43.9471 -69.4304 233° Southwest  Level FlightAware Approximate
06:58PM 43.8761 -69.5613 233° Southwest  Level FlightAware Approximate
06:59PM 43.8050 -69.6919 233° Southwest  Level FlightAware Approximate
07:00PM 43.7337 -69.8221 233° Southwest  Level FlightAware Approximate
07:01PM 43.6622 -69.9521 233° Southwest  Level FlightAware Approximate
07:02PM 43.5906 -70.0817 233° Southwest  Level FlightAware Approximate
07:03PM 43.5189 -70.2110 233° Southwest  Level FlightAware Approximate
07:04PM 43.4470 -70.3400 232° Southwest  Level FlightAware Approximate
07:05PM 43.3750 -70.4688 232° Southwest  Level FlightAware Approximate
07:06PM 43.3028 -70.5972 232° Southwest  Level FlightAware Approximate
07:07PM 43.2305 -70.7253 232° Southwest  Level FlightAware Approximate
07:08PM 43.1580 -70.8531 232° Southwest  Level FlightAware Approximate
07:09PM 43.0854 -70.9806 232° Southwest  Level FlightAware Approximate
07:10PM 43.0127 -71.1078 260° West  Level FlightAware Approximate
07:11PM 42.9920 -71.2645 234° Southwest  Level FlightAware Approximate
07:12PM 42.9224 -71.3947 234° Southwest  Level FlightAware Approximate
07:13PM 42.8527 -71.5247 234° Southwest  Level FlightAware Approximate
07:14PM 42.7828 -71.6544 234° Southwest  Level FlightAware Approximate
07:15PM 42.7128 -71.7838 227° Southwest  Level FlightAware Approximate
07:16PM 42.6327 -71.9008 235° Southwest  Level FlightAware Approximate
07:17PM 42.5648 -72.0319 235° Southwest  Level FlightAware Approximate
07:18PM 42.4967 -72.1628 235° Southwest  Level FlightAware Approximate
07:19PM 42.4285 -72.2934 218° Southwest  Level FlightAware Approximate
07:20PM 42.3369 -72.3917 235° Southwest  Level FlightAware Approximate
07:21PM 42.2694 -72.5226 235° Southwest  Level FlightAware Approximate
07:22PM 42.2018 -72.6532 231° Southwest  Level FlightAware Approximate
07:23PM 42.1268 -72.7762 234° Southwest  Level FlightAware Approximate
07:24PM 42.0572 -72.9047 227° Southwest  Level FlightAware Approximate
07:25PM 41.9771 -73.0212 235° Southwest  Level FlightAware Approximate
07:26PM 41.9096 -73.1513 235° Southwest  Level FlightAware Approximate
07:27PM 41.8419 -73.2812 235° Southwest  Level FlightAware Approximate
07:28PM 41.7741 -73.4108 235° Southwest  Level FlightAware Approximate
07:29PM 41.7061 -73.5401 235° Southwest  Level FlightAware Approximate
07:30PM 41.6380 -73.6692 235° Southwest  Level FlightAware Approximate
07:31PM 41.5697 -73.7979 194° South  Level FlightAware Approximate
07:32PM 41.4591 -73.8342 236° Southwest  Level FlightAware Approximate
07:33PM 41.3938 -73.9653 186° South  Level FlightAware Approximate
07:34PM 41.2785 -73.9817 237° Southwest  Level FlightAware Approximate
07:35PM 41.2146 -74.1137 228° Southwest  Level FlightAware Approximate
07:36PM 41.1356 -74.2301 228° Southwest  Level FlightAware Approximate
07:37PM 41.0564 -74.3463 228° Southwest  Level FlightAware Approximate
07:38PM 40.9771 -74.4622 228° Southwest  Level FlightAware Approximate
07:39PM 40.8977 -74.5778 249° West  Level FlightAware Approximate
07:40PM 40.8564 -74.7216 227° Southwest  Level FlightAware Approximate
07:41PM 40.7765 -74.8363 227° Southwest  Level FlightAware Approximate
07:42PM 40.6964 -74.9508 227° Southwest  Level FlightAware Approximate
07:43PM 40.6162 -75.0650 227° Southwest  Level FlightAware Approximate
07:44PM 40.5359 -75.1789 227° Southwest  Level FlightAware Approximate
07:45PM 40.4556 -75.2925 227° Southwest  Level FlightAware Approximate
07:46PM 40.3750 -75.4059 227° Southwest  Level FlightAware Approximate
07:47PM 40.2944 -75.5190 227° Southwest  Level FlightAware Approximate
07:48PM 40.2137 -75.6319 227° Southwest  Level FlightAware Approximate
07:49PM 40.1329 -75.7444 227° Southwest  Level FlightAware Approximate
07:50PM 40.0519 -75.8567 227° Southwest  Level FlightAware Approximate
07:51PM 39.9709 -75.9688 227° Southwest  Level FlightAware Approximate
07:52PM 39.8897 -76.0805 227° Southwest  Level FlightAware Approximate
07:53PM 39.8085 -76.1920 226° Southwest  Level FlightAware Approximate
07:54PM 39.7271 -76.3033 226° Southwest  Level FlightAware Approximate
07:55PM 39.6456 -76.4142 226° Southwest  Level FlightAware Approximate
07:56PM 39.5640 -76.5249 226° Southwest  Level FlightAware Approximate
07:57PM 39.4823 -76.6354 226° Southwest  Level FlightAware Approximate
07:58PM 39.4006 -76.7456 226° Southwest  Level FlightAware Approximate
07:59PM 39.3187 -76.8555 226° Southwest  Level FlightAware Approximate
08:00PM 39.2367 -76.9652 226° Southwest  Level FlightAware Approximate
08:01PM 39.1546 -77.0746 226° Southwest  Level FlightAware Approximate
08:02PM 39.0724 -77.1838 226° Southwest  Level FlightAware Approximate
08:03PM 38.9901 -77.2927 203° Southwest  Level FlightAware Approximate
08:04PM 38.8824 -77.3500 203° Southwest  Level FlightAware Approximate